sensor_id;sensor_type;location;lat;lon;timestamp;P1;durP1;ratioP1;P2;durP2;ratioP2
16460;SDS011;8341;42.048;24.650;2023-03-03T00:02:01;203.97;;;33.27;;
16460;SDS011;8341;42.048;24.650;2023-03-03T00:04:29;337.17;;;35.40;;
16460;SDS011;8341;42.048;24.650;2023-03-03T00:06:56;206.82;;;33.10;;
16460;SDS011;8341;42.048;24.650;2023-03-03T00:09:23;57.10;;;24.70;;
16460;SDS011;8341;42.048;24.650;2023-03-03T00:11:53;57.05;;;25.55;;
16460;SDS011;8341;42.048;24.650;2023-03-03T00:14:22;51.05;;;24.60;;
16460;SDS011;8341;42.048;24.650;2023-03-03T00:16:53;51.60;;;25.30;;
16460;SDS011;8341;42.048;24.650;2023-03-03T00:19:21;50.00;;;25.05;;
16460;SDS011;8341;42.048;24.650;2023-03-03T00:21:50;52.47;;;25.85;;
16460;SDS011;8341;42.048;24.650;2023-03-03T00:24:19;52.78;;;24.63;;
16460;SDS011;8341;42.048;24.650;2023-03-03T00:26:48;46.40;;;23.95;;
16460;SDS011;8341;42.048;24.650;2023-03-03T00:34:48;51.15;;;25.30;;
16460;SDS011;8341;42.048;24.650;2023-03-03T00:37:22;434.92;;;36.40;;
16460;SDS011;8341;42.048;24.650;2023-03-03T00:39:53;413.48;;;35.28;;
16460;SDS011;8341;42.048;24.650;2023-03-03T00:42:26;942.67;;;51.65;;
16460;SDS011;8341;42.048;24.650;2023-03-03T00:44:55;250.75;;;29.90;;
16460;SDS011;8341;42.048;24.650;2023-03-03T00:47:24;135.05;;;23.92;;
16460;SDS011;8341;42.048;24.650;2023-03-03T00:49:53;41.70;;;21.75;;
16460;SDS011;8341;42.048;24.650;2023-03-03T00:52:23;45.40;;;20.95;;
16460;SDS011;8341;42.048;24.650;2023-03-03T00:54:53;52.97;;;21.33;;
16460;SDS011;8341;42.048;24.650;2023-03-03T00:57:19;56.47;;;22.13;;
16460;SDS011;8341;42.048;24.650;2023-03-03T00:59:46;68.80;;;23.02;;
16460;SDS011;8341;42.048;24.650;2023-03-03T01:02:13;52.65;;;22.48;;
16460;SDS011;8341;42.048;24.650;2023-03-03T01:04:40;42.25;;;22.25;;
16460;SDS011;8341;42.048;24.650;2023-03-03T01:07:12;46.55;;;22.90;;
16460;SDS011;8341;42.048;24.650;2023-03-03T01:09:40;57.47;;;28.00;;
16460;SDS011;8341;42.048;24.650;2023-03-03T01:12:07;49.60;;;25.40;;
16460;SDS011;8341;42.048;24.650;2023-03-03T01:14:35;47.50;;;24.98;;
16460;SDS011;8341;42.048;24.650;2023-03-03T01:17:03;41.13;;;22.65;;
16460;SDS011;8341;42.048;24.650;2023-03-03T01:19:30;35.90;;;19.70;;
16460;SDS011;8341;42.048;24.650;2023-03-03T01:21:57;36.90;;;21.08;;
16460;SDS011;8341;42.048;24.650;2023-03-03T01:24:24;36.83;;;20.77;;
16460;SDS011;8341;42.048;24.650;2023-03-03T01:26:52;36.83;;;21.13;;
16460;SDS011;8341;42.048;24.650;2023-03-03T01:29:19;37.08;;;21.52;;
16460;SDS011;8341;42.048;24.650;2023-03-03T01:31:46;37.17;;;20.50;;
16460;SDS011;8341;42.048;24.650;2023-03-03T01:34:13;38.63;;;21.65;;
16460;SDS011;8341;42.048;24.650;2023-03-03T01:36:40;34.10;;;19.17;;
16460;SDS011;8341;42.048;24.650;2023-03-03T01:39:07;33.40;;;19.27;;
16460;SDS011;8341;42.048;24.650;2023-03-03T01:41:36;32.38;;;19.80;;
16460;SDS011;8341;42.048;24.650;2023-03-03T01:44:05;35.67;;;20.08;;
16460;SDS011;8341;42.048;24.650;2023-03-03T01:46:40;32.67;;;19.20;;
16460;SDS011;8341;42.048;24.650;2023-03-03T01:49:20;34.67;;;20.45;;
16460;SDS011;8341;42.048;24.650;2023-03-03T01:51:51;34.83;;;19.38;;
16460;SDS011;8341;42.048;24.650;2023-03-03T01:54:21;32.95;;;19.02;;
16460;SDS011;8341;42.048;24.650;2023-03-03T01:56:54;39.60;;;20.33;;
16460;SDS011;8341;42.048;24.650;2023-03-03T01:59:26;35.65;;;19.73;;
16460;SDS011;8341;42.048;24.650;2023-03-03T02:01:56;39.10;;;19.88;;
16460;SDS011;8341;42.048;24.650;2023-03-03T02:04:23;33.63;;;19.35;;
16460;SDS011;8341;42.048;24.650;2023-03-03T02:06:53;35.78;;;19.92;;
16460;SDS011;8341;42.048;24.650;2023-03-03T02:09:25;34.90;;;19.70;;
16460;SDS011;8341;42.048;24.650;2023-03-03T02:11:57;37.53;;;19.25;;
16460;SDS011;8341;42.048;24.650;2023-03-03T02:14:28;38.70;;;20.05;;
16460;SDS011;8341;42.048;24.650;2023-03-03T02:16:55;38.30;;;19.40;;
16460;SDS011;8341;42.048;24.650;2023-03-03T02:19:23;37.67;;;19.77;;
16460;SDS011;8341;42.048;24.650;2023-03-03T02:21:58;31.70;;;17.77;;
16460;SDS011;8341;42.048;24.650;2023-03-03T02:24:28;30.52;;;16.58;;
16460;SDS011;8341;42.048;24.650;2023-03-03T02:27:00;27.53;;;16.50;;
16460;SDS011;8341;42.048;24.650;2023-03-03T02:29:27;27.02;;;15.27;;
16460;SDS011;8341;42.048;24.650;2023-03-03T02:31:54;30.93;;;16.97;;
16460;SDS011;8341;42.048;24.650;2023-03-03T02:34:21;29.05;;;16.77;;
16460;SDS011;8341;42.048;24.650;2023-03-03T02:36:48;27.95;;;15.52;;
16460;SDS011;8341;42.048;24.650;2023-03-03T02:39:16;30.33;;;16.48;;
16460;SDS011;8341;42.048;24.650;2023-03-03T02:41:47;28.38;;;15.52;;
16460;SDS011;8341;42.048;24.650;2023-03-03T02:44:21;28.50;;;15.57;;
16460;SDS011;8341;42.048;24.650;2023-03-03T02:46:50;27.40;;;15.00;;
16460;SDS011;8341;42.048;24.650;2023-03-03T02:49:19;28.45;;;15.27;;
16460;SDS011;8341;42.048;24.650;2023-03-03T02:51:48;31.10;;;15.97;;
16460;SDS011;8341;42.048;24.650;2023-03-03T02:54:16;29.92;;;15.63;;
16460;SDS011;8341;42.048;24.650;2023-03-03T02:56:44;29.30;;;16.52;;
16460;SDS011;8341;42.048;24.650;2023-03-03T02:59:11;32.27;;;16.90;;
16460;SDS011;8341;42.048;24.650;2023-03-03T03:01:41;33.72;;;16.98;;
16460;SDS011;8341;42.048;24.650;2023-03-03T03:04:09;32.05;;;17.90;;
16460;SDS011;8341;42.048;24.650;2023-03-03T03:06:38;34.38;;;17.13;;
16460;SDS011;8341;42.048;24.650;2023-03-03T03:09:05;29.77;;;15.77;;
16460;SDS011;8341;42.048;24.650;2023-03-03T03:11:33;29.08;;;16.75;;
16460;SDS011;8341;42.048;24.650;2023-03-03T03:14:00;27.38;;;15.88;;
16460;SDS011;8341;42.048;24.650;2023-03-03T03:16:27;28.85;;;16.08;;
16460;SDS011;8341;42.048;24.650;2023-03-03T03:18:57;36.30;;;16.73;;
16460;SDS011;8341;42.048;24.650;2023-03-03T03:21:24;34.67;;;16.23;;
16460;SDS011;8341;42.048;24.650;2023-03-03T03:23:51;30.75;;;16.48;;
16460;SDS011;8341;42.048;24.650;2023-03-03T03:26:18;27.50;;;15.85;;
16460;SDS011;8341;42.048;24.650;2023-03-03T03:28:46;42.88;;;16.52;;
16460;SDS011;8341;42.048;24.650;2023-03-03T03:31:13;37.50;;;17.73;;
16460;SDS011;8341;42.048;24.650;2023-03-03T03:33:41;33.30;;;17.02;;
16460;SDS011;8341;42.048;24.650;2023-03-03T03:36:09;33.22;;;17.70;;
16460;SDS011;8341;42.048;24.650;2023-03-03T03:38:37;36.20;;;18.42;;
16460;SDS011;8341;42.048;24.650;2023-03-03T03:41:04;37.83;;;17.65;;
16460;SDS011;8341;42.048;24.650;2023-03-03T03:43:32;39.20;;;18.27;;
16460;SDS011;8341;42.048;24.650;2023-03-03T03:45:59;51.75;;;18.33;;
16460;SDS011;8341;42.048;24.650;2023-03-03T03:48:26;32.65;;;17.90;;
16460;SDS011;8341;42.048;24.650;2023-03-03T03:50:54;35.53;;;17.42;;
16460;SDS011;8341;42.048;24.650;2023-03-03T03:53:22;31.52;;;16.80;;
16460;SDS011;8341;42.048;24.650;2023-03-03T03:55:49;32.17;;;17.27;;
16460;SDS011;8341;42.048;24.650;2023-03-03T03:58:16;31.33;;;16.40;;
16460;SDS011;8341;42.048;24.650;2023-03-03T04:00:44;36.78;;;16.83;;
16460;SDS011;8341;42.048;24.650;2023-03-03T04:03:12;31.42;;;15.90;;
16460;SDS011;8341;42.048;24.650;2023-03-03T04:05:39;31.17;;;15.80;;
16460;SDS011;8341;42.048;24.650;2023-03-03T04:08:06;30.67;;;16.23;;
16460;SDS011;8341;42.048;24.650;2023-03-03T04:10:35;28.35;;;15.65;;
16460;SDS011;8341;42.048;24.650;2023-03-03T04:13:02;29.95;;;15.93;;
16460;SDS011;8341;42.048;24.650;2023-03-03T04:15:29;29.52;;;16.15;;
16460;SDS011;8341;42.048;24.650;2023-03-03T04:17:56;27.30;;;15.75;;
16460;SDS011;8341;42.048;24.650;2023-03-03T04:20:23;33.63;;;16.08;;
16460;SDS011;8341;42.048;24.650;2023-03-03T04:22:50;29.42;;;14.98;;
16460;SDS011;8341;42.048;24.650;2023-03-03T04:25:17;28.77;;;16.15;;
16460;SDS011;8341;42.048;24.650;2023-03-03T04:27:45;30.60;;;16.30;;
16460;SDS011;8341;42.048;24.650;2023-03-03T04:30:13;32.17;;;17.75;;
16460;SDS011;8341;42.048;24.650;2023-03-03T04:32:41;45.92;;;26.90;;
16460;SDS011;8341;42.048;24.650;2023-03-03T04:35:08;37.85;;;20.70;;
16460;SDS011;8341;42.048;24.650;2023-03-03T04:37:35;35.35;;;18.85;;
16460;SDS011;8341;42.048;24.650;2023-03-03T04:40:03;33.55;;;18.70;;
16460;SDS011;8341;42.048;24.650;2023-03-03T04:42:32;31.95;;;18.25;;
16460;SDS011;8341;42.048;24.650;2023-03-03T04:45:00;30.08;;;17.30;;
16460;SDS011;8341;42.048;24.650;2023-03-03T04:47:27;32.25;;;16.77;;
16460;SDS011;8341;42.048;24.650;2023-03-03T04:49:54;32.72;;;19.00;;
16460;SDS011;8341;42.048;24.650;2023-03-03T04:52:21;31.45;;;17.25;;
16460;SDS011;8341;42.048;24.650;2023-03-03T04:54:48;30.90;;;16.92;;
16460;SDS011;8341;42.048;24.650;2023-03-03T04:57:15;32.00;;;17.48;;
16460;SDS011;8341;42.048;24.650;2023-03-03T04:59:42;33.28;;;17.17;;
16460;SDS011;8341;42.048;24.650;2023-03-03T05:02:10;31.70;;;16.60;;
16460;SDS011;8341;42.048;24.650;2023-03-03T05:04:37;28.60;;;16.83;;
16460;SDS011;8341;42.048;24.650;2023-03-03T05:07:04;29.67;;;16.80;;
16460;SDS011;8341;42.048;24.650;2023-03-03T05:09:32;26.58;;;15.82;;
16460;SDS011;8341;42.048;24.650;2023-03-03T05:11:59;29.05;;;15.65;;
16460;SDS011;8341;42.048;24.650;2023-03-03T05:14:26;41.67;;;19.50;;
16460;SDS011;8341;42.048;24.650;2023-03-03T05:16:53;41.70;;;19.00;;
16460;SDS011;8341;42.048;24.650;2023-03-03T05:19:22;56.65;;;29.77;;
16460;SDS011;8341;42.048;24.650;2023-03-03T05:21:49;65.10;;;32.58;;
16460;SDS011;8341;42.048;24.650;2023-03-03T05:24:16;67.63;;;33.27;;
16460;SDS011;8341;42.048;24.650;2023-03-03T05:26:43;68.07;;;32.87;;
16460;SDS011;8341;42.048;24.650;2023-03-03T05:29:10;72.80;;;34.20;;
16460;SDS011;8341;42.048;24.650;2023-03-03T05:31:37;69.70;;;32.70;;
16460;SDS011;8341;42.048;24.650;2023-03-03T05:34:04;70.20;;;35.07;;
16460;SDS011;8341;42.048;24.650;2023-03-03T05:36:32;69.30;;;33.53;;
16460;SDS011;8341;42.048;24.650;2023-03-03T05:38:59;260.27;;;39.77;;
16460;SDS011;8341;42.048;24.650;2023-03-03T05:41:26;196.10;;;36.23;;
16460;SDS011;8341;42.048;24.650;2023-03-03T05:43:53;264.30;;;40.10;;
16460;SDS011;8341;42.048;24.650;2023-03-03T05:46:19;433.00;;;48.43;;
16460;SDS011;8341;42.048;24.650;2023-03-03T05:48:46;354.97;;;51.40;;
16460;SDS011;8341;42.048;24.650;2023-03-03T05:51:13;178.50;;;37.20;;
16460;SDS011;8341;42.048;24.650;2023-03-03T05:53:42;381.50;;;42.80;;
16460;SDS011;8341;42.048;24.650;2023-03-03T05:56:08;493.57;;;48.03;;
16460;SDS011;8341;42.048;24.650;2023-03-03T05:58:35;282.83;;;38.47;;
16460;SDS011;8341;42.048;24.650;2023-03-03T06:01:02;268.50;;;40.70;;
16460;SDS011;8341;42.048;24.650;2023-03-03T06:03:29;190.93;;;38.73;;
16460;SDS011;8341;42.048;24.650;2023-03-03T06:05:57;92.33;;;32.90;;
16460;SDS011;8341;42.048;24.650;2023-03-03T06:08:24;173.13;;;36.67;;
16460;SDS011;8341;42.048;24.650;2023-03-03T06:10:52;147.07;;;37.13;;
16460;SDS011;8341;42.048;24.650;2023-03-03T06:13:19;106.87;;;35.10;;
16460;SDS011;8341;42.048;24.650;2023-03-03T06:15:46;74.73;;;32.57;;
16460;SDS011;8341;42.048;24.650;2023-03-03T06:18:13;137.63;;;35.03;;
16460;SDS011;8341;42.048;24.650;2023-03-03T06:20:40;108.40;;;34.00;;
16460;SDS011;8341;42.048;24.650;2023-03-03T06:23:07;104.13;;;35.17;;
16460;SDS011;8341;42.048;24.650;2023-03-03T06:25:34;91.03;;;34.17;;
16460;SDS011;8341;42.048;24.650;2023-03-03T06:28:02;142.07;;;36.80;;
16460;SDS011;8341;42.048;24.650;2023-03-03T06:30:29;75.77;;;33.70;;
16460;SDS011;8341;42.048;24.650;2023-03-03T06:32:56;83.87;;;33.90;;
16460;SDS011;8341;42.048;24.650;2023-03-03T06:35:23;91.50;;;35.43;;
16460;SDS011;8341;42.048;24.650;2023-03-03T06:37:50;71.37;;;34.93;;
16460;SDS011;8341;42.048;24.650;2023-03-03T06:40:17;83.40;;;34.37;;
16460;SDS011;8341;42.048;24.650;2023-03-03T06:42:45;84.13;;;36.57;;
16460;SDS011;8341;42.048;24.650;2023-03-03T06:45:13;91.43;;;35.03;;
16460;SDS011;8341;42.048;24.650;2023-03-03T06:47:40;88.40;;;35.30;;
16460;SDS011;8341;42.048;24.650;2023-03-03T06:50:08;85.40;;;37.60;;
16460;SDS011;8341;42.048;24.650;2023-03-03T06:52:37;86.60;;;37.10;;
16460;SDS011;8341;42.048;24.650;2023-03-03T06:55:09;164.87;;;39.03;;
16460;SDS011;8341;42.048;24.650;2023-03-03T06:57:38;89.77;;;37.73;;
16460;SDS011;8341;42.048;24.650;2023-03-03T07:00:18;88.90;;;41.13;;
16460;SDS011;8341;42.048;24.650;2023-03-03T07:02:47;104.97;;;47.83;;
16460;SDS011;8341;42.048;24.650;2023-03-03T07:05:23;83.63;;;38.57;;
16460;SDS011;8341;42.048;24.650;2023-03-03T07:07:53;107.83;;;38.60;;
16460;SDS011;8341;42.048;24.650;2023-03-03T07:10:22;128.13;;;39.03;;
16460;SDS011;8341;42.048;24.650;2023-03-03T07:12:50;76.90;;;36.57;;
16460;SDS011;8341;42.048;24.650;2023-03-03T07:15:20;71.13;;;36.27;;
16460;SDS011;8341;42.048;24.650;2023-03-03T07:17:51;76.87;;;35.50;;
16460;SDS011;8341;42.048;24.650;2023-03-03T07:20:23;66.07;;;34.73;;
16460;SDS011;8341;42.048;24.650;2023-03-03T07:22:55;69.63;;;35.33;;
16460;SDS011;8341;42.048;24.650;2023-03-03T07:25:25;68.73;;;35.60;;
16460;SDS011;8341;42.048;24.650;2023-03-03T07:27:57;63.80;;;33.90;;
16460;SDS011;8341;42.048;24.650;2023-03-03T07:30:38;76.33;;;38.10;;
16460;SDS011;8341;42.048;24.650;2023-03-03T07:33:07;73.13;;;35.10;;
16460;SDS011;8341;42.048;24.650;2023-03-03T07:35:49;64.87;;;35.27;;
16460;SDS011;8341;42.048;24.650;2023-03-03T07:38:16;70.70;;;35.53;;
16460;SDS011;8341;42.048;24.650;2023-03-03T07:40:50;66.17;;;35.43;;
16460;SDS011;8341;42.048;24.650;2023-03-03T07:43:26;65.30;;;34.63;;
16460;SDS011;8341;42.048;24.650;2023-03-03T07:45:59;62.03;;;35.30;;
16460;SDS011;8341;42.048;24.650;2023-03-03T07:48:30;61.93;;;33.20;;
16460;SDS011;8341;42.048;24.650;2023-03-03T07:51:03;60.43;;;31.60;;
16460;SDS011;8341;42.048;24.650;2023-03-03T07:53:33;48.47;;;27.37;;
16460;SDS011;8341;42.048;24.650;2023-03-03T07:56:02;47.67;;;30.95;;
16460;SDS011;8341;42.048;24.650;2023-03-03T07:58:40;31.57;;;20.33;;
16460;SDS011;8341;42.048;24.650;2023-03-03T08:03:59;18.50;;;9.40;;
16460;SDS011;8341;42.048;24.650;2023-03-03T08:06:36;16.52;;;10.68;;
16460;SDS011;8341;42.048;24.650;2023-03-03T08:09:27;23.05;;;15.43;;
16460;SDS011;8341;42.048;24.650;2023-03-03T08:12:00;22.65;;;14.35;;
16460;SDS011;8341;42.048;24.650;2023-03-03T08:14:43;20.77;;;13.15;;
16460;SDS011;8341;42.048;24.650;2023-03-03T08:17:16;23.15;;;13.82;;
16460;SDS011;8341;42.048;24.650;2023-03-03T08:19:46;41.15;;;22.67;;
16460;SDS011;8341;42.048;24.650;2023-03-03T08:22:15;33.88;;;20.90;;
16460;SDS011;8341;42.048;24.650;2023-03-03T08:24:44;27.85;;;15.93;;
16460;SDS011;8341;42.048;24.650;2023-03-03T08:27:11;23.38;;;14.80;;
16460;SDS011;8341;42.048;24.650;2023-03-03T08:29:38;24.83;;;14.70;;
16460;SDS011;8341;42.048;24.650;2023-03-03T08:32:05;16.67;;;12.00;;
16460;SDS011;8341;42.048;24.650;2023-03-03T08:34:33;20.27;;;11.73;;
16460;SDS011;8341;42.048;24.650;2023-03-03T08:37:00;34.17;;;14.25;;
16460;SDS011;8341;42.048;24.650;2023-03-03T08:39:27;23.13;;;11.27;;
16460;SDS011;8341;42.048;24.650;2023-03-03T08:41:53;18.48;;;11.25;;
16460;SDS011;8341;42.048;24.650;2023-03-03T08:44:20;11.73;;;9.23;;
16460;SDS011;8341;42.048;24.650;2023-03-03T08:46:47;40.20;;;30.48;;
16460;SDS011;8341;42.048;24.650;2023-03-03T08:49:14;14.40;;;11.80;;
16460;SDS011;8341;42.048;24.650;2023-03-03T08:51:43;14.05;;;12.55;;
16460;SDS011;8341;42.048;24.650;2023-03-03T08:54:10;8.55;;;5.85;;
16460;SDS011;8341;42.048;24.650;2023-03-03T08:56:37;23.58;;;14.48;;
16460;SDS011;8341;42.048;24.650;2023-03-03T08:59:04;35.88;;;22.17;;
16460;SDS011;8341;42.048;24.650;2023-03-03T09:01:31;16.40;;;11.38;;
16460;SDS011;8341;42.048;24.650;2023-03-03T09:03:58;10.35;;;5.68;;
16460;SDS011;8341;42.048;24.650;2023-03-03T09:06:25;6.82;;;5.10;;
16460;SDS011;8341;42.048;24.650;2023-03-03T09:08:53;7.20;;;5.18;;
16460;SDS011;8341;42.048;24.650;2023-03-03T09:11:23;17.38;;;13.20;;
16460;SDS011;8341;42.048;24.650;2023-03-03T09:13:53;5.65;;;4.38;;
16460;SDS011;8341;42.048;24.650;2023-03-03T09:16:27;5.70;;;4.88;;
16460;SDS011;8341;42.048;24.650;2023-03-03T09:18:59;4.63;;;3.75;;
16460;SDS011;8341;42.048;24.650;2023-03-03T09:21:41;6.03;;;4.68;;
16460;SDS011;8341;42.048;24.650;2023-03-03T09:24:11;14.90;;;10.27;;
16460;SDS011;8341;42.048;24.650;2023-03-03T09:26:48;13.60;;;9.32;;
16460;SDS011;8341;42.048;24.650;2023-03-03T09:29:18;9.23;;;7.28;;
16460;SDS011;8341;42.048;24.650;2023-03-03T09:31:51;16.60;;;11.88;;
16460;SDS011;8341;42.048;24.650;2023-03-03T09:34:20;10.82;;;9.35;;
16460;SDS011;8341;42.048;24.650;2023-03-03T09:36:49;11.38;;;8.73;;
16460;SDS011;8341;42.048;24.650;2023-03-03T09:39:18;13.60;;;10.80;;
16460;SDS011;8341;42.048;24.650;2023-03-03T09:41:58;15.82;;;12.60;;
16460;SDS011;8341;42.048;24.650;2023-03-03T09:47:56;26.83;;;20.33;;
16460;SDS011;8341;42.048;24.650;2023-03-03T09:50:40;19.85;;;15.48;;
16460;SDS011;8341;42.048;24.650;2023-03-03T09:53:20;27.92;;;17.95;;
16460;SDS011;8341;42.048;24.650;2023-03-03T09:55:58;28.80;;;19.23;;
16460;SDS011;8341;42.048;24.650;2023-03-03T09:58:34;28.48;;;18.17;;
16460;SDS011;8341;42.048;24.650;2023-03-03T10:01:31;25.15;;;16.85;;
16460;SDS011;8341;42.048;24.650;2023-03-03T10:04:17;20.98;;;15.18;;
16460;SDS011;8341;42.048;24.650;2023-03-03T10:07:09;22.63;;;14.90;;
16460;SDS011;8341;42.048;24.650;2023-03-03T10:10:01;21.48;;;14.75;;
16460;SDS011;8341;42.048;24.650;2023-03-03T10:12:38;10.52;;;8.40;;
16460;SDS011;8341;42.048;24.650;2023-03-03T10:15:16;10.45;;;7.72;;
16460;SDS011;8341;42.048;24.650;2023-03-03T10:17:51;7.25;;;6.45;;
16460;SDS011;8341;42.048;24.650;2023-03-03T10:20:23;7.90;;;6.47;;
16460;SDS011;8341;42.048;24.650;2023-03-03T10:23:03;9.95;;;7.53;;
16460;SDS011;8341;42.048;24.650;2023-03-03T10:25:46;10.40;;;7.53;;
16460;SDS011;8341;42.048;24.650;2023-03-03T10:31:33;10.05;;;8.30;;
16460;SDS011;8341;42.048;24.650;2023-03-03T10:34:13;8.82;;;7.38;;
16460;SDS011;8341;42.048;24.650;2023-03-03T10:36:54;10.45;;;8.38;;
16460;SDS011;8341;42.048;24.650;2023-03-03T10:39:37;8.98;;;7.75;;
16460;SDS011;8341;42.048;24.650;2023-03-03T10:42:17;10.77;;;7.95;;
16460;SDS011;8341;42.048;24.650;2023-03-03T10:45:12;10.07;;;8.07;;
16460;SDS011;8341;42.048;24.650;2023-03-03T10:48:04;11.30;;;8.75;;
16460;SDS011;8341;42.048;24.650;2023-03-03T10:50:45;14.75;;;10.32;;
16460;SDS011;8341;42.048;24.650;2023-03-03T10:53:25;11.02;;;8.95;;
16460;SDS011;8341;42.048;24.650;2023-03-03T10:56:02;13.18;;;11.00;;
16460;SDS011;8341;42.048;24.650;2023-03-03T10:58:44;12.57;;;10.32;;
16460;SDS011;8341;42.048;24.650;2023-03-03T11:01:16;10.93;;;9.43;;
16460;SDS011;8341;42.048;24.650;2023-03-03T11:04:05;12.50;;;10.25;;
16460;SDS011;8341;42.048;24.650;2023-03-03T11:06:53;14.07;;;10.98;;
16460;SDS011;8341;42.048;24.650;2023-03-03T11:09:41;13.27;;;11.02;;
16460;SDS011;8341;42.048;24.650;2023-03-03T11:12:27;15.30;;;11.27;;
16460;SDS011;8341;42.048;24.650;2023-03-03T11:15:18;12.05;;;10.25;;
16460;SDS011;8341;42.048;24.650;2023-03-03T11:18:03;13.27;;;9.65;;
16460;SDS011;8341;42.048;24.650;2023-03-03T11:20:56;14.82;;;11.65;;
16460;SDS011;8341;42.048;24.650;2023-03-03T11:23:38;17.27;;;12.90;;
16460;SDS011;8341;42.048;24.650;2023-03-03T11:26:22;16.30;;;12.80;;
16460;SDS011;8341;42.048;24.650;2023-03-03T11:29:01;14.27;;;10.65;;
16460;SDS011;8341;42.048;24.650;2023-03-03T11:31:43;16.70;;;12.48;;
16460;SDS011;8341;42.048;24.650;2023-03-03T11:34:16;17.35;;;13.80;;
16460;SDS011;8341;42.048;24.650;2023-03-03T11:36:56;20.77;;;14.68;;
16460;SDS011;8341;42.048;24.650;2023-03-03T11:39:27;20.88;;;14.70;;
16460;SDS011;8341;42.048;24.650;2023-03-03T11:41:57;19.10;;;13.30;;
16460;SDS011;8341;42.048;24.650;2023-03-03T11:44:33;20.38;;;14.23;;
16460;SDS011;8341;42.048;24.650;2023-03-03T11:47:04;20.70;;;14.18;;
16460;SDS011;8341;42.048;24.650;2023-03-03T11:49:40;20.38;;;14.52;;
16460;SDS011;8341;42.048;24.650;2023-03-03T11:52:19;19.10;;;14.00;;
16460;SDS011;8341;42.048;24.650;2023-03-03T11:54:51;18.23;;;13.70;;
16460;SDS011;8341;42.048;24.650;2023-03-03T11:57:22;18.05;;;13.00;;
16460;SDS011;8341;42.048;24.650;2023-03-03T11:59:59;17.83;;;13.27;;
16460;SDS011;8341;42.048;24.650;2023-03-03T12:02:44;18.17;;;13.77;;
16460;SDS011;8341;42.048;24.650;2023-03-03T12:05:26;17.90;;;12.82;;
16460;SDS011;8341;42.048;24.650;2023-03-03T12:08:05;18.38;;;13.13;;
16460;SDS011;8341;42.048;24.650;2023-03-03T12:10:40;17.92;;;12.48;;
16460;SDS011;8341;42.048;24.650;2023-03-03T12:13:18;17.08;;;12.77;;
16460;SDS011;8341;42.048;24.650;2023-03-03T12:15:51;15.55;;;11.60;;
16460;SDS011;8341;42.048;24.650;2023-03-03T12:18:33;15.48;;;12.10;;
16460;SDS011;8341;42.048;24.650;2023-03-03T12:21:14;21.08;;;16.83;;
16460;SDS011;8341;42.048;24.650;2023-03-03T12:23:59;16.25;;;12.65;;
16460;SDS011;8341;42.048;24.650;2023-03-03T12:26:53;16.65;;;12.30;;
16460;SDS011;8341;42.048;24.650;2023-03-03T12:29:33;15.57;;;11.35;;
16460;SDS011;8341;42.048;24.650;2023-03-03T12:32:13;19.08;;;13.30;;
16460;SDS011;8341;42.048;24.650;2023-03-03T12:34:49;15.77;;;12.40;;
16460;SDS011;8341;42.048;24.650;2023-03-03T12:37:27;17.98;;;13.93;;
16460;SDS011;8341;42.048;24.650;2023-03-03T12:40:09;11.80;;;10.18;;
16460;SDS011;8341;42.048;24.650;2023-03-03T12:42:46;15.60;;;12.65;;
16460;SDS011;8341;42.048;24.650;2023-03-03T12:45:27;17.33;;;13.25;;
16460;SDS011;8341;42.048;24.650;2023-03-03T12:48:06;18.42;;;13.77;;
16460;SDS011;8341;42.048;24.650;2023-03-03T12:50:39;16.48;;;13.40;;
16460;SDS011;8341;42.048;24.650;2023-03-03T12:53:21;12.55;;;10.43;;
16460;SDS011;8341;42.048;24.650;2023-03-03T12:55:59;13.07;;;10.88;;
16460;SDS011;8341;42.048;24.650;2023-03-03T12:58:33;13.07;;;11.05;;
16460;SDS011;8341;42.048;24.650;2023-03-03T13:01:09;14.45;;;11.88;;
16460;SDS011;8341;42.048;24.650;2023-03-03T13:03:48;11.95;;;10.45;;
16460;SDS011;8341;42.048;24.650;2023-03-03T13:06:26;13.70;;;11.18;;
16460;SDS011;8341;42.048;24.650;2023-03-03T13:09:03;13.32;;;10.93;;
16460;SDS011;8341;42.048;24.650;2023-03-03T13:11:51;14.82;;;12.20;;
16460;SDS011;8341;42.048;24.650;2023-03-03T13:14:41;12.65;;;10.23;;
16460;SDS011;8341;42.048;24.650;2023-03-03T13:17:14;13.20;;;10.80;;
16460;SDS011;8341;42.048;24.650;2023-03-03T13:19:48;12.07;;;10.63;;
16460;SDS011;8341;42.048;24.650;2023-03-03T13:22:25;12.80;;;10.80;;
16460;SDS011;8341;42.048;24.650;2023-03-03T13:25:00;13.38;;;10.95;;
16460;SDS011;8341;42.048;24.650;2023-03-03T13:27:35;12.77;;;11.48;;
16460;SDS011;8341;42.048;24.650;2023-03-03T13:30:11;16.73;;;11.93;;
16460;SDS011;8341;42.048;24.650;2023-03-03T13:32:42;11.95;;;10.25;;
16460;SDS011;8341;42.048;24.650;2023-03-03T13:35:17;11.65;;;10.27;;
16460;SDS011;8341;42.048;24.650;2023-03-03T13:37:55;12.82;;;10.25;;
16460;SDS011;8341;42.048;24.650;2023-03-03T13:40:23;13.05;;;11.20;;
16460;SDS011;8341;42.048;24.650;2023-03-03T13:42:56;13.48;;;10.60;;
16460;SDS011;8341;42.048;24.650;2023-03-03T13:45:29;13.85;;;11.00;;
16460;SDS011;8341;42.048;24.650;2023-03-03T13:48:27;12.75;;;11.13;;
16460;SDS011;8341;42.048;24.650;2023-03-03T13:51:02;11.70;;;10.35;;
16460;SDS011;8341;42.048;24.650;2023-03-03T13:53:41;12.55;;;11.23;;
16460;SDS011;8341;42.048;24.650;2023-03-03T13:56:21;13.70;;;11.50;;
16460;SDS011;8341;42.048;24.650;2023-03-03T13:59:01;14.73;;;11.75;;
16460;SDS011;8341;42.048;24.650;2023-03-03T14:01:38;13.52;;;11.98;;
16460;SDS011;8341;42.048;24.650;2023-03-03T14:04:28;12.65;;;10.85;;
16460;SDS011;8341;42.048;24.650;2023-03-03T14:07:02;13.15;;;11.85;;
16460;SDS011;8341;42.048;24.650;2023-03-03T14:09:47;12.95;;;10.90;;
16460;SDS011;8341;42.048;24.650;2023-03-03T14:12:28;13.50;;;11.32;;
16460;SDS011;8341;42.048;24.650;2023-03-03T14:15:05;14.05;;;11.32;;
16460;SDS011;8341;42.048;24.650;2023-03-03T14:17:44;12.93;;;11.10;;
16460;SDS011;8341;42.048;24.650;2023-03-03T14:20:23;11.52;;;10.35;;
16460;SDS011;8341;42.048;24.650;2023-03-03T14:22:54;12.77;;;10.73;;
16460;SDS011;8341;42.048;24.650;2023-03-03T14:25:24;15.05;;;12.23;;
16460;SDS011;8341;42.048;24.650;2023-03-03T14:28:01;13.05;;;10.57;;
16460;SDS011;8341;42.048;24.650;2023-03-03T14:30:39;12.10;;;10.40;;
16460;SDS011;8341;42.048;24.650;2023-03-03T14:33:27;13.07;;;11.68;;
16460;SDS011;8341;42.048;24.650;2023-03-03T14:36:00;12.88;;;11.40;;
16460;SDS011;8341;42.048;24.650;2023-03-03T14:38:37;15.00;;;12.68;;
16460;SDS011;8341;42.048;24.650;2023-03-03T14:41:11;14.80;;;12.18;;
16460;SDS011;8341;42.048;24.650;2023-03-03T14:43:43;14.15;;;12.32;;
16460;SDS011;8341;42.048;24.650;2023-03-03T14:46:33;13.57;;;12.18;;
16460;SDS011;8341;42.048;24.650;2023-03-03T14:49:04;14.25;;;12.75;;
16460;SDS011;8341;42.048;24.650;2023-03-03T14:51:42;13.95;;;12.05;;
16460;SDS011;8341;42.048;24.650;2023-03-03T14:54:15;14.52;;;12.13;;
16460;SDS011;8341;42.048;24.650;2023-03-03T14:56:55;13.73;;;11.95;;
16460;SDS011;8341;42.048;24.650;2023-03-03T14:59:24;13.80;;;11.35;;
16460;SDS011;8341;42.048;24.650;2023-03-03T15:01:57;14.88;;;12.35;;
16460;SDS011;8341;42.048;24.650;2023-03-03T15:04:52;19.23;;;13.55;;
16460;SDS011;8341;42.048;24.650;2023-03-03T15:07:39;15.98;;;12.45;;